Time;durP1;ratioP1;P1;durP2;ratioP2;P2;SDS_P1;SDS_P2;PMS_P1;PMS_P2;Temp;Humidity;BMP_temperature;BMP_pressure;BME280_temperature;BME280_humidity;BME280_pressure;Samples;Min_cycle;Max_cycle;Signal;HPM_P1;HPM_P2
2022/11/16 00:00:31;;;;;;;19.92;15.13;;;10.50;99.90;;;;;;5017423;28;20101;-74
2022/11/16 00:03:00;;;;;;;17.38;14.85;;;10.50;99.90;;;;;;5034725;28;20206;-72
2022/11/16 00:05:25;;;;;;;17.98;16.17;;;10.50;99.90;;;;;;5034340;28;20037;-72
2022/11/16 00:07:51;;;;;;;19.60;17.33;;;10.50;99.90;;;;;;5000494;28;20056;-72
2022/11/16 00:10:17;;;;;;;16.92;14.63;;;10.50;99.90;;;;;;5034923;28;20095;-73
2022/11/16 00:12:42;;;;;;;17.33;15.50;;;10.50;99.90;;;;;;5020982;28;20382;-73
2022/11/16 00:15:11;;;;;;;20.80;16.60;;;10.50;99.90;;;;;;5038335;28;20099;-73
2022/11/16 00:17:36;;;;;;;18.23;15.90;;;10.50;99.90;;;;;;5037242;28;20053;-73
2022/11/16 00:20:02;;;;;;;21.67;16.42;;;10.50;99.90;;;;;;5036962;28;20049;-72
2022/11/16 00:22:28;;;;;;;17.98;16.10;;;10.50;99.90;;;;;;5015706;28;20053;-72
2022/11/16 00:24:54;;;;;;;20.40;17.70;;;10.60;99.90;;;;;;5032330;28;20045;-73
2022/11/16 00:27:19;;;;;;;16.98;15.02;;;10.50;99.90;;;;;;5003238;28;20077;-72
2022/11/16 00:29:46;;;;;;;22.77;17.75;;;10.50;99.90;;;;;;5036921;28;20037;-72
2022/11/16 00:32:11;;;;;;;17.80;16.05;;;10.60;99.90;;;;;;5037031;28;20040;-72
2022/11/16 00:34:41;;;;;;;20.88;17.58;;;10.60;99.90;;;;;;5019056;28;20334;-72
2022/11/16 00:37:06;;;;;;;20.30;16.90;;;10.60;99.90;;;;;;5018754;28;20041;-73
2022/11/16 00:39:33;;;;;;;19.65;17.15;;;10.50;99.90;;;;;;5036859;28;20063;-73
2022/11/16 00:41:58;;;;;;;19.70;17.25;;;10.60;99.90;;;;;;5036462;28;20042;-73
2022/11/16 00:44:24;;;;;;;23.38;19.08;;;10.50;99.90;;;;;;5036648;28;20112;-73
2022/11/16 00:46:49;;;;;;;21.35;18.55;;;10.50;99.90;;;;;;5036639;28;20045;-72
2022/11/16 00:49:15;;;;;;;19.58;17.30;;;10.80;99.90;;;;;;5036407;28;20421;-72
2022/11/16 00:51:41;;;;;;;20.42;17.40;;;10.50;99.90;;;;;;5036179;28;20069;-72
2022/11/16 00:54:10;;;;;;;20.65;17.35;;;10.60;99.90;;;;;;5036496;28;20037;-72
2022/11/16 00:56:36;;;;;;;22.23;18.20;;;10.70;99.90;;;;;;5036654;28;20033;-72
2022/11/16 00:59:02;;;;;;;18.58;16.42;;;10.60;99.90;;;;;;5036702;28;20041;-72
2022/11/16 01:01:28;;;;;;;22.30;17.90;;;10.60;99.90;;;;;;5018803;28;20056;-73
2022/11/16 01:03:56;;;;;;;23.92;17.98;;;10.60;99.90;;;;;;5019532;28;20048;-72
2022/11/16 01:06:22;;;;;;;21.45;19.10;;;10.60;99.90;;;;;;5018208;28;20041;-72
2022/11/16 01:08:47;;;;;;;24.25;18.45;;;10.60;99.90;;;;;;5036300;28;20044;-73
2022/11/16 01:14:02;;;;;;;21.23;18.80;;;10.60;99.90;;;;;;5036371;28;20116;-71
2022/11/16 01:16:28;;;;;;;20.63;17.50;;;10.60;99.90;;;;;;4999084;28;1056395;-72
2022/11/16 01:18:54;;;;;;;19.27;16.83;;;10.60;99.90;;;;;;5037084;28;20132;-72
2022/11/16 01:21:22;;;;;;;19.45;16.45;;;10.60;99.90;;;;;;5015874;28;20104;-72
2022/11/16 01:23:48;;;;;;;25.20;19.50;;;10.60;99.90;;;;;;5018925;28;20105;-72
2022/11/16 01:26:13;;;;;;;21.10;16.58;;;10.60;99.90;;;;;;5037915;28;20382;-71
2022/11/16 01:28:41;;;;;;;22.30;16.60;;;10.60;99.90;;;;;;5020022;28;20128;-71
2022/11/16 01:31:08;;;;;;;18.40;16.50;;;10.60;99.90;;;;;;5019188;28;20366;-71
2022/11/16 01:33:36;;;;;;;21.73;16.98;;;10.60;99.90;;;;;;5036578;28;20051;-72
2022/11/16 01:36:07;;;;;;;19.40;15.30;;;10.60;99.90;;;;;;5036683;28;20386;-72
2022/11/16 01:38:35;;;;;;;20.10;15.88;;;10.70;99.90;;;;;;5017216;28;20042;-72
2022/11/16 01:41:01;;;;;;;18.48;15.77;;;10.70;99.90;;;;;;5017055;28;20038;-72
2022/11/16 01:43:26;;;;;;;22.73;15.60;;;10.70;99.90;;;;;;5016665;28;20477;-71
2022/11/16 01:45:52;;;;;;;20.48;16.75;;;10.70;99.90;;;;;;5016847;28;20068;-73
2022/11/16 01:48:29;;;;;;;25.77;17.45;;;10.70;99.90;;;;;;5015439;28;20050;-73
2022/11/16 01:50:56;;;;;;;20.42;16.67;;;10.60;99.90;;;;;;5000442;28;20049;-72
2022/11/16 01:53:23;;;;;;;22.00;17.45;;;10.70;99.90;;;;;;5036596;28;20119;-72
2022/11/16 01:55:49;;;;;;;23.05;16.95;;;10.60;99.90;;;;;;5036627;28;20077;-73
2022/11/16 01:58:19;;;;;;;22.95;17.67;;;10.70;99.90;;;;;;5036388;28;20069;-72
2022/11/16 02:00:45;;;;;;;19.00;15.43;;;10.70;99.90;;;;;;5036246;28;20041;-72
2022/11/16 02:03:11;;;;;;;18.35;14.63;;;10.60;99.90;;;;;;5036306;28;20060;-72
2022/11/16 02:06:13;;;;;;;21.27;16.38;;;10.70;99.90;;;;;;5036087;28;20068;-72
2022/11/16 02:12:28;;;;;;;19.17;15.23;;;10.70;99.90;;;;;;5036218;28;20060;-72
2022/11/16 02:15:26;;;;;;;18.10;14.57;;;10.70;99.90;;;;;;5036057;28;20092;-73
2022/11/16 02:17:59;;;;;;;21.13;14.82;;;10.70;99.90;;;;;;5036290;28;20058;-72
2022/11/16 02:20:42;;;;;;;21.40;15.55;;;10.80;99.90;;;;;;5035753;28;20418;-72
2022/11/16 02:23:17;;;;;;;30.47;17.83;;;10.70;99.90;;;;;;5035908;28;20116;-73
2022/11/16 02:26:07;;;;;;;16.67;14.30;;;10.70;99.90;;;;;;5035957;28;20307;-73
2022/11/16 02:28:47;;;;;;;16.20;13.43;;;10.70;99.90;;;;;;5035747;28;20099;-73
2022/11/16 02:31:18;;;;;;;17.92;15.43;;;10.70;99.90;;;;;;5035829;28;20037;-72
2022/11/16 02:33:47;;;;;;;17.60;13.98;;;10.70;99.90;;;;;;5034999;28;20044;-72
2022/11/16 02:36:18;;;;;;;21.92;16.55;;;10.80;99.90;;;;;;5018747;28;20064;-72
2022/11/16 02:38:52;;;;;;;24.25;16.48;;;10.70;99.90;;;;;;5035820;28;20214;-72
2022/11/16 02:41:19;;;;;;;;;;;10.70;99.90;;;;;;5002149;28;20084;-72
2022/11/16 02:43:51;;;;;;;21.80;15.45;;;10.70;99.90;;;;;;5035632;28;19917;-72
2022/11/16 02:46:28;;;;;;;19.63;16.45;;;10.70;99.90;;;;;;5035440;28;20049;-72
2022/11/16 02:48:58;;;;;;;19.10;15.10;;;10.70;99.90;;;;;;5035037;28;20033;-72
2022/11/16 02:51:27;;;;;;;18.15;15.50;;;10.80;99.90;;;;;;5035708;28;20121;-73
2022/11/16 02:54:03;;;;;;;21.38;15.18;;;10.70;99.90;;;;;;5035478;28;20037;-73
2022/11/16 02:56:29;;;;;;;23.85;17.20;;;10.70;99.90;;;;;;5035009;28;20041;-72
2022/11/16 02:58:57;;;;;;;27.90;19.90;;;10.70;99.90;;;;;;5035180;28;20125;-72
2022/11/16 03:01:33;;;;;;;28.58;17.63;;;10.70;99.90;;;;;;5035443;28;20099;-72
2022/11/16 03:04:13;;;;;;;21.70;16.67;;;10.70;99.90;;;;;;5035274;28;20090;-71
2022/11/16 03:06:42;;;;;;;30.33;18.70;;;10.70;99.90;;;;;;5034630;28;20052;-72
2022/11/16 03:09:13;;;;;;;31.98;19.65;;;10.60;99.90;;;;;;5035061;28;20074;-72
2022/11/16 03:11:58;;;;;;;26.27;16.85;;;10.70;99.90;;;;;;5017754;28;20038;-72
2022/11/16 03:14:45;;;;;;;24.52;17.25;;;10.70;99.90;;;;;;5035353;28;20037;-72
2022/11/16 03:17:26;;;;;;;27.00;18.17;;;10.60;99.90;;;;;;5035047;28;20057;-71
2022/11/16 03:20:25;;;;;;;23.17;15.63;;;10.70;99.90;;;;;;4998150;28;20076;-72
2022/11/16 03:22:59;;;;;;;29.25;18.67;;;10.60;99.90;;;;;;5015334;28;20038;-71
2022/11/16 03:25:30;;;;;;;29.33;18.58;;;10.60;99.90;;;;;;5015511;28;20346;-72
2022/11/16 03:28:24;;;;;;;24.20;18.25;;;10.60;99.90;;;;;;4981420;28;20435;-72
2022/11/16 03:30:56;;;;;;;32.85;21.73;;;10.70;99.90;;;;;;5015493;28;20034;-71
2022/11/16 03:33:27;;;;;;;26.80;18.77;;;10.70;99.90;;;;;;5005062;28;20038;-72
2022/11/16 03:36:35;;;;;;;23.85;18.13;;;10.60;99.90;;;;;;5021872;28;20116;-71
2022/11/16 03:39:07;;;;;;;25.80;18.70;;;10.70;99.90;;;;;;5035011;28;20416;-70
2022/11/16 03:41:34;;;;;;;27.13;19.10;;;10.60;99.90;;;;;;5034918;28;20049;-70
2022/11/16 03:44:00;;;;;;;24.70;18.70;;;10.60;99.90;;;;;;5034775;28;20049;-72
2022/11/16 03:46:29;;;;;;;37.20;22.70;;;10.60;99.90;;;;;;5037245;28;20424;-71
2022/11/16 03:48:57;;;;;;;31.63;21.15;;;10.60;99.90;;;;;;5038501;28;20037;-72
2022/11/16 03:51:24;;;;;;;29.50;21.35;;;10.60;99.90;;;;;;5038782;28;20125;-71
2022/11/16 03:53:52;;;;;;;32.97;21.63;;;10.60;99.90;;;;;;5022092;28;20042;-71
2022/11/16 03:56:18;;;;;;;27.02;19.38;;;10.60;99.90;;;;;;5038731;28;20134;-71
2022/11/16 03:58:44;;;;;;;31.23;22.00;;;10.70;99.90;;;;;;5038740;28;20107;-72
2022/11/16 04:01:09;;;;;;;30.27;21.27;;;10.50;99.90;;;;;;5020910;28;20041;-72
2022/11/16 04:03:35;;;;;;;26.92;20.52;;;10.60;99.90;;;;;;5038351;28;20496;-72
2022/11/16 04:25:39;;;;;;;30.20;22.10;;;10.50;99.90;;;;;;5038262;28;20068;-71
2022/11/16 04:28:15;;;;;;;55.38;29.80;;;10.60;99.90;;;;;;5020167;28;20081;-71
2022/11/16 04:38:59;;;;;;;41.60;27.73;;;10.50;99.90;;;;;;5037697;28;20038;-73
2022/11/16 04:44:09;;;;;;;39.67;27.35;;;10.50;99.90;;;;;;5018011;28;20042;-72
2022/11/16 04:49:19;;;;;;;35.10;24.77;;;10.40;99.90;;;;;;5017817;28;20038;-72
2022/11/16 04:51:44;;;;;;;31.65;25.13;;;10.50;99.90;;;;;;5017744;28;20352;-71
2022/11/16 04:54:10;;;;;;;29.48;23.73;;;10.50;99.90;;;;;;5017678;28;20041;-72
2022/11/16 04:56:35;;;;;;;46.75;28.83;;;10.50;99.90;;;;;;5016704;28;20096;-71
2022/11/16 04:59:01;;;;;;;49.78;32.28;;;10.40;99.90;;;;;;5017356;28;20355;-72
2022/11/16 05:04:13;;;;;;;40.20;27.17;;;10.40;99.90;;;;;;5021243;28;20053;-71
2022/11/16 05:06:39;;;;;;;33.08;25.50;;;10.60;99.90;;;;;;5017267;28;20045;-71
2022/11/16 05:09:04;;;;;;;41.42;29.60;;;10.50;99.90;;;;;;5017058;28;20358;-72
2022/11/16 05:11:30;;;;;;;44.25;29.80;;;10.50;99.90;;;;;;5017729;28;20438;-71
2022/11/16 05:13:56;;;;;;;43.53;28.27;;;10.40;99.90;;;;;;5017528;28;20042;-72
2022/11/16 05:16:21;;;;;;;34.97;26.33;;;10.40;99.90;;;;;;5017335;28;20112;-71
2022/11/16 05:20:59;;;;;;;45.17;31.58;;;10.40;99.90;;;;;;5000045;28;20061;-70
2022/11/16 05:21:35;;;;;;;51.03;31.55;;;10.40;99.90;;;;;;5016645;28;20434;-71
2022/11/16 05:26:45;;;;;;;70.57;37.83;;;10.50;99.90;;;;;;5036913;28;20049;-71
2022/11/16 05:29:10;;;;;;;52.03;33.42;;;10.40;99.90;;;;;;5037176;28;20128;-71
2022/11/16 05:31:36;;;;;;;49.92;32.75;;;10.40;99.90;;;;;;5036761;28;20041;-71
2022/11/16 05:34:02;;;;;;;52.60;34.20;;;10.50;99.90;;;;;;5027852;28;20121;-70
2022/11/16 05:36:27;;;;;;;54.08;35.00;;;10.50;99.90;;;;;;5017079;28;20092;-71
2022/11/16 05:38:53;;;;;;;65.05;34.40;;;10.40;99.90;;;;;;5017109;28;20053;-71
2022/11/16 05:41:18;;;;;;;49.53;32.78;;;10.40;99.90;;;;;;5016943;28;20045;-71
2022/11/16 05:43:44;;;;;;;55.95;34.53;;;10.40;99.90;;;;;;5016409;28;20073;-72
2022/11/16 05:46:10;;;;;;;51.25;33.40;;;10.50;99.90;;;;;;5017481;28;20041;-71
2022/11/16 05:48:35;;;;;;;50.40;32.33;;;10.40;99.90;;;;;;4999281;28;20128;-71
2022/11/16 05:51:01;;;;;;;78.65;40.22;;;10.50;99.90;;;;;;5016579;28;20509;-72
2022/11/16 05:53:26;;;;;;;47.95;31.75;;;10.40;99.90;;;;;;5016808;28;20037;-71
2022/11/16 05:55:52;;;;;;;47.97;33.28;;;10.50;99.90;;;;;;5016530;28;20042;-72
2022/11/16 05:58:18;;;;;;;56.60;35.90;;;10.50;99.90;;;;;;5015387;28;20171;-71
2022/11/16 06:00:45;;;;;;;44.58;31.95;;;10.50;99.90;;;;;;5016478;28;20072;-71
2022/11/16 06:03:11;;;;;;;74.07;37.13;;;10.40;99.90;;;;;;5016298;28;20041;-70
2022/11/16 06:05:37;;;;;;;48.90;32.95;;;10.50;99.90;;;;;;5016610;28;20525;-69
2022/11/16 06:08:02;;;;;;;78.03;39.38;;;10.40;99.90;;;;;;5015292;28;20104;-71
2022/11/16 06:10:28;;;;;;;49.20;32.55;;;10.40;99.90;;;;;;5016089;28;20053;-72
2022/11/16 06:12:54;;;;;;;72.63;38.75;;;10.40;99.90;;;;;;5015995;28;20373;-71
2022/11/16 06:15:19;;;;;;;46.13;31.90;;;10.40;99.90;;;;;;5016376;28;20029;-72
2022/11/16 06:17:45;;;;;;;59.53;33.85;;;10.60;99.90;;;;;;4998828;28;20073;-72
2022/11/16 06:20:10;;;;;;;47.22;32.28;;;10.40;99.90;;;;;;5002577;28;20049;-71
2022/11/16 06:22:36;;;;;;;65.25;36.08;;;10.50;99.90;;;;;;4998581;28;20066;-72
2022/11/16 06:25:02;;;;;;;89.63;40.83;;;10.50;99.90;;;;;;5016551;28;20465;-72
2022/11/16 06:27:28;;;;;;;85.28;41.33;;;10.50;99.90;;;;;;5016330;28;20057;-72
2022/11/16 06:29:53;;;;;;;67.95;35.72;;;10.50;99.90;;;;;;5016010;28;20362;-72
2022/11/16 06:32:19;;;;;;;68.63;36.13;;;10.50;99.90;;;;;;5016246;28;20049;-71
2022/11/16 06:34:44;;;;;;;66.30;37.40;;;10.50;99.90;;;;;;5015791;28;20553;-71
2022/11/16 06:37:10;;;;;;;64.53;36.88;;;10.50;99.90;;;;;;5015862;28;20073;-71
2022/11/16 06:39:35;;;;;;;64.25;35.60;;;10.40;99.90;;;;;;5015976;28;20450;-71
2022/11/16 06:42:01;;;;;;;79.57;37.53;;;10.40;99.90;;;;;;5015783;28;20038;-71
2022/11/16 06:44:26;;;;;;;56.58;33.25;;;10.50;99.90;;;;;;5015732;28;20454;-71
2022/11/16 06:46:52;;;;;;;47.47;31.95;;;10.40;99.90;;;;;;5015915;28;20089;-71
2022/11/16 06:49:18;;;;;;;58.17;35.50;;;10.60;99.90;;;;;;5015033;28;20040;-72
2022/11/16 06:51:43;;;;;;;59.38;34.92;;;10.40;99.90;;;;;;5035546;28;20057;-71
2022/11/16 06:54:09;;;;;;;55.72;34.50;;;10.40;99.90;;;;;;5017714;28;20145;-70
2022/11/16 06:56:34;;;;;;;69.32;38.92;;;10.50;99.90;;;;;;5017032;28;20099;-72
2022/11/16 06:59:00;;;;;;;44.67;31.58;;;10.40;99.90;;;;;;5035956;28;20092;-71
2022/11/16 07:01:28;;;;;;;88.20;42.22;;;10.40;99.90;;;;;;5035309;28;20450;-72
2022/11/16 07:03:55;;;;;;;99.07;42.72;;;10.40;99.90;;;;;;5028506;28;20037;-72
2022/11/16 07:06:21;;;;;;;86.63;41.25;;;10.40;99.90;;;;;;5015591;28;20453;-72
2022/11/16 07:08:47;;;;;;;53.85;34.88;;;10.40;99.90;;;;;;5026397;28;20191;-72
2022/11/16 07:11:12;;;;;;;73.40;38.40;;;10.80;99.90;;;;;;5035189;28;20041;-72
2022/11/16 07:13:40;;;;;;;56.65;34.53;;;10.40;99.90;;;;;;5017743;28;20099;-73
2022/11/16 07:16:08;;;;;;;64.63;36.25;;;10.40;99.90;;;;;;5034922;28;20037;-71
2022/11/16 07:18:35;;;;;;;54.55;34.05;;;10.40;99.90;;;;;;5029231;28;20421;-71
2022/11/16 07:21:12;;;;;;;74.07;35.97;;;10.40;99.90;;;;;;5015231;28;20117;-72
2022/11/16 07:23:40;;;;;;;40.70;28.83;;;10.40;99.90;;;;;;5015188;28;20048;-71
2022/11/16 07:26:07;;;;;;;57.95;35.15;;;10.40;99.90;;;;;;5015309;28;20042;-72
2022/11/16 07:28:34;;;;;;;58.00;34.30;;;10.40;99.90;;;;;;4981028;28;20054;-72
2022/11/16 07:31:01;;;;;;;74.25;38.25;;;10.40;99.90;;;;;;5015315;28;20041;-72
2022/11/16 07:33:27;;;;;;;67.40;37.38;;;10.40;99.90;;;;;;5021445;28;20490;-71
2022/11/16 07:35:52;;;;;;;146.15;45.42;;;10.70;99.90;;;;;;5034748;28;20125;-72
2022/11/16 07:38:18;;;;;;;90.72;41.00;;;10.40;99.90;;;;;;5034771;28;20127;-73
2022/11/16 07:40:45;;;;;;;78.15;37.63;;;10.40;99.90;;;;;;5017169;28;20049;-72
2022/11/16 07:43:12;;;;;;;76.10;36.95;;;10.40;99.90;;;;;;5017385;28;20103;-72
2022/11/16 07:45:37;;;;;;;67.75;37.40;;;10.40;99.90;;;;;;5034781;28;20053;-72
2022/11/16 07:48:03;;;;;;;72.10;36.58;;;10.40;99.90;;;;;;5015973;28;20072;-73
2022/11/16 07:50:29;;;;;;;76.20;38.33;;;10.40;99.90;;;;;;5015144;28;20069;-72
2022/11/16 07:52:55;;;;;;;87.00;41.20;;;10.40;99.90;;;;;;5014889;28;20046;-72
2022/11/16 07:55:23;;;;;;;133.13;46.28;;;10.50;99.90;;;;;;4997992;28;20473;-72
2022/11/16 07:57:48;;;;;;;80.05;40.25;;;10.50;99.90;;;;;;5014741;28;20462;-72
2022/11/16 08:00:14;;;;;;;98.65;42.08;;;10.40;99.90;;;;;;5034862;28;20055;-72
2022/11/16 08:02:40;;;;;;;96.38;42.60;;;10.40;99.90;;;;;;5034891;28;20049;-73
2022/11/16 08:05:06;;;;;;;99.25;43.10;;;10.50;99.90;;;;;;5017470;28;20104;-72
2022/11/16 08:07:34;;;;;;;86.93;40.72;;;10.50;99.90;;;;;;5034119;28;20127;-73
2022/11/16 08:09:59;;;;;;;60.25;36.20;;;10.50;99.90;;;;;;5034199;28;20133;-73
2022/11/16 08:12:25;;;;;;;105.63;42.20;;;10.50;99.90;;;;;;5034845;28;20065;-72
2022/11/16 08:14:51;;;;;;;64.47;36.00;;;10.50;99.90;;;;;;5035429;28;20338;-73
2022/11/16 08:17:16;;;;;;;58.17;34.55;;;10.50;99.90;;;;;;5034864;28;20053;-72
2022/11/16 08:19:42;;;;;;;72.68;36.35;;;10.50;99.90;;;;;;5019623;28;20509;-72
2022/11/16 08:22:11;;;;;;;70.88;35.95;;;10.50;99.90;;;;;;5034240;28;20045;-72
2022/11/16 08:24:40;;;;;;;75.40;37.42;;;10.90;99.90;;;;;;5034449;28;20391;-72
2022/11/16 08:27:05;;;;;;;54.25;32.88;;;10.40;99.90;;;;;;5034489;28;20060;-72
2022/11/16 08:29:31;;;;;;;72.47;38.03;;;10.40;99.90;;;;;;5034545;28;20037;-72
2022/11/16 08:31:57;;;;;;;54.88;33.83;;;10.40;99.90;;;;;;5035767;28;20096;-73
2022/11/16 08:34:23;;;;;;;62.38;33.58;;;10.40;99.90;;;;;;5027673;28;20076;-71
2022/11/16 08:36:48;;;;;;;81.50;38.30;;;10.50;99.90;;;;;;5018161;28;20038;-72
2022/11/16 08:39:14;;;;;;;60.25;34.95;;;10.50;99.90;;;;;;5017973;28;20111;-72
2022/11/16 08:41:41;;;;;;;59.42;34.92;;;10.50;99.90;;;;;;5001067;28;20132;-72
2022/11/16 08:44:10;;;;;;;50.33;31.55;;;10.50;99.90;;;;;;5018137;28;20366;-71
2022/11/16 08:46:35;;;;;;;83.22;38.65;;;10.50;99.90;;;;;;5018035;28;20323;-71
2022/11/16 08:49:01;;;;;;;72.15;35.70;;;10.80;99.90;;;;;;5008159;28;20037;-71
2022/11/16 08:51:27;;;;;;;79.78;37.05;;;10.50;99.90;;;;;;5037518;28;20041;-71
2022/11/16 08:53:57;;;;;;;74.13;33.17;;;10.70;99.90;;;;;;5037198;28;20556;-71
2022/11/16 08:56:23;;;;;;;63.03;32.92;;;10.50;99.90;;;;;;5037646;28;20128;-71
2022/11/16 08:58:52;;;;;;;40.53;27.65;;;10.50;99.90;;;;;;5038309;28;20045;-72
2022/11/16 09:01:20;;;;;;;43.70;27.83;;;10.60;99.90;;;;;;5037611;28;20051;-71
2022/11/16 09:03:46;;;;;;;44.17;28.17;;;10.50;99.90;;;;;;5036865;28;20056;-71
2022/11/16 09:06:12;;;;;;;41.13;28.17;;;10.50;99.90;;;;;;5037281;28;20037;-72
2022/11/16 09:08:42;;;;;;;38.05;25.92;;;10.70;99.90;;;;;;5015945;28;20058;-72
2022/11/16 09:11:15;;;;;;;57.78;31.00;;;10.70;99.90;;;;;;5019897;28;20096;-71
2022/11/16 09:13:41;;;;;;;60.22;30.55;;;10.60;99.90;;;;;;5003343;28;20113;-71
2022/11/16 09:16:14;;;;;;;47.30;29.30;;;10.60;99.90;;;;;;5036884;28;20429;-71
2022/11/16 09:18:40;;;;;;;78.13;35.80;;;10.60;99.90;;;;;;5027379;28;20450;-71
2022/11/16 09:21:05;;;;;;;50.58;30.92;;;10.70;99.90;;;;;;4999355;28;20077;-71
2022/11/16 09:23:31;;;;;;;39.65;28.23;;;10.80;99.90;;;;;;5017360;28;20121;-72
2022/11/16 09:26:02;;;;;;;50.28;30.83;;;10.80;99.90;;;;;;5017494;28;20507;-71
2022/11/16 09:28:28;;;;;;;43.42;30.40;;;10.80;99.90;;;;;;4983652;28;20049;-71
2022/11/16 09:30:59;;;;;;;48.85;30.63;;;10.80;99.90;;;;;;5017084;28;20350;-72
2022/11/16 09:33:27;;;;;;;41.97;28.33;;;10.90;99.90;;;;;;5017029;28;20034;-71
2022/11/16 09:35:53;;;;;;;53.35;31.17;;;10.90;99.90;;;;;;5017006;28;20041;-71
2022/11/16 09:38:19;;;;;;;52.47;32.17;;;11.00;99.90;;;;;;5017153;28;20354;-71
2022/11/16 09:40:45;;;;;;;51.80;32.20;;;11.40;99.90;;;;;;5017080;28;20041;-72
2022/11/16 09:43:18;;;;;;;51.55;32.60;;;11.00;99.90;;;;;;5015786;28;20434;-72
2022/11/16 09:46:13;;;;;;;56.80;34.20;;;11.10;99.90;;;;;;5016927;28;20057;-71
2022/11/16 09:48:40;;;;;;;43.75;29.90;;;11.10;99.90;;;;;;4983805;28;20045;-71
2022/11/16 09:51:11;;;;;;;36.33;28.35;;;11.20;99.90;;;;;;5016953;28;20378;-71
2022/11/16 09:53:51;;;;;;;53.67;35.55;;;11.20;99.90;;;;;;5016861;28;20109;-71
2022/11/16 09:56:32;;;;;;;49.92;33.00;;;11.30;99.90;;;;;;5016638;28;20123;-72
2022/11/16 09:59:09;;;;;;;62.03;36.67;;;11.30;99.90;;;;;;5016777;28;20128;-72
2022/11/16 10:01:43;;;;;;;58.53;36.28;;;11.40;99.90;;;;;;5016618;28;20053;-72
2022/11/16 10:04:11;;;;;;;82.93;39.38;;;11.50;99.90;;;;;;5016106;28;20041;-71
2022/11/16 10:06:58;;;;;;;48.05;32.15;;;11.60;99.90;;;;;;5016171;28;20050;-72
2022/11/16 10:09:24;;;;;;;62.38;36.90;;;11.50;99.90;;;;;;5015833;28;20058;-72
2022/11/16 10:12:13;;;;;;;40.28;30.48;;;11.50;99.90;;;;;;5016439;28;20443;-72
2022/11/16 10:15:12;;;;;;;52.45;35.08;;;11.60;99.90;;;;;;5015872;28;20053;-71
2022/11/16 10:17:53;;;;;;;150.15;49.53;;;11.70;99.90;;;;;;5014828;28;20116;-71
2022/11/16 10:21:02;;;;;;;47.53;33.42;;;11.80;99.90;;;;;;4999005;28;20058;-72
2022/11/16 10:23:49;;;;;;;33.28;27.13;;;11.80;99.90;;;;;;5016193;28;20045;-73
2022/11/16 10:26:54;;;;;;;36.25;28.77;;;11.90;99.90;;;;;;5016177;28;20461;-72
2022/11/16 10:29:34;;;;;;;31.15;25.70;;;11.80;99.90;;;;;;4982333;28;20053;-72
2022/11/16 10:32:03;;;;;;;32.95;26.55;;;11.80;99.90;;;;;;5016188;28;20046;-72
2022/11/16 10:34:59;;;;;;;31.25;23.92;;;11.90;99.90;;;;;;5015784;28;20063;-72
2022/11/16 10:37:30;;;;;;;68.25;36.20;;;11.80;99.90;;;;;;5002802;28;20381;-72
2022/11/16 10:39:56;;;;;;;36.08;26.45;;;12.00;99.90;;;;;;5015591;28;20488;-72
2022/11/16 10:42:29;;;;;;;38.90;28.05;;;11.90;99.90;;;;;;4998829;28;20085;-72
2022/11/16 10:44:58;;;;;;;42.05;30.08;;;12.00;99.90;;;;;;5015998;28;20133;-72
2022/11/16 10:47:37;;;;;;;40.85;28.77;;;12.40;99.90;;;;;;4998051;28;20045;-71
2022/11/16 10:50:31;;;;;;;43.67;28.95;;;12.10;99.90;;;;;;4998280;28;20038;-72
2022/11/16 10:52:58;;;;;;;33.97;27.25;;;12.10;99.90;;;;;;5015086;28;20328;-73
2022/11/16 10:55:24;;;;;;;32.70;25.85;;;12.20;99.90;;;;;;5017458;28;20037;-72
2022/11/16 10:57:55;;;;;;;39.13;26.92;;;12.30;99.90;;;;;;5017924;28;20041;-72
2022/11/16 11:00:40;;;;;;;34.30;22.25;;;12.40;99.90;;;;;;5017919;28;20076;-72
2022/11/16 11:03:05;;;;;;;30.13;22.52;;;12.30;99.90;;;;;;5017584;28;20057;-71
2022/11/16 11:05:33;;;;;;;27.35;20.90;;;12.30;99.90;;;;;;5035491;28;20037;-71
2022/11/16 11:08:09;;;;;;;32.03;23.30;;;12.40;99.90;;;;;;5035051;28;20045;-73
2022/11/16 11:10:38;;;;;;;29.52;21.67;;;12.40;99.90;;;;;;5001183;28;20124;-72
2022/11/16 11:13:05;;;;;;;22.65;17.63;;;12.20;99.90;;;;;;5002180;28;20091;-72
2022/11/16 11:15:31;;;;;;;27.17;18.40;;;12.30;99.90;;;;;;5035136;28;20033;-72
2022/11/16 11:18:18;;;;;;;25.55;18.58;;;12.40;99.90;;;;;;5023910;28;20121;-73
2022/11/16 11:20:47;;;;;;;20.13;15.38;;;12.20;99.90;;;;;;4997961;28;20374;-72
2022/11/16 11:23:20;;;;;;;23.67;17.05;;;12.20;99.90;;;;;;5015639;28;20095;-72
2022/11/16 11:25:55;;;;;;;31.20;19.97;;;12.20;99.90;;;;;;4981554;28;20050;-72
2022/11/16 11:28:27;;;;;;;17.90;12.68;;;12.20;99.90;;;;;;5015044;28;20046;-72
2022/11/16 11:30:58;;;;;;;19.63;13.20;;;12.10;99.90;;;;;;5015558;28;20050;-72
2022/11/16 11:33:27;;;;;;;27.63;16.88;;;12.00;99.90;;;;;;5014387;28;20297;-72
2022/11/16 11:36:08;;;;;;;21.63;14.20;;;12.00;99.90;;;;;;5014462;28;20513;-72
2022/11/16 11:38:56;;;;;;;24.30;14.32;;;12.00;99.90;;;;;;5015202;28;20046;-70
2022/11/16 11:41:23;;;;;;;20.17;13.65;;;11.90;99.90;;;;;;5015225;28;20053;-72
2022/11/16 11:44:13;;;;;;;23.83;14.73;;;11.80;99.90;;;;;;5013928;28;20362;-71
2022/11/16 11:46:45;;;;;;;25.80;18.25;;;11.80;99.90;;;;;;5014043;28;20034;-72
2022/11/16 11:49:17;;;;;;;18.50;13.18;;;11.80;99.90;;;;;;4995539;28;20057;-72
2022/11/16 11:51:45;;;;;;;16.85;10.50;;;11.80;99.90;;;;;;4995476;28;20046;-72
2022/11/16 11:54:28;;;;;;;15.60;9.05;;;11.90;99.90;;;;;;4995611;28;20123;-72
2022/11/16 11:56:53;;;;;;;15.82;9.00;;;11.80;99.90;;;;;;4978159;28;20116;-71
2022/11/16 11:59:23;;;;;;;15.38;9.32;;;11.80;99.90;;;;;;4995373;28;20459;-72
2022/11/16 12:02:05;;;;;;;11.68;7.80;;;11.80;99.90;;;;;;4997888;28;20057;-72
2022/11/16 12:04:50;;;;;;;16.90;7.53;;;11.80;99.90;;;;;;5015675;28;20072;-72
2022/11/16 12:07:23;;;;;;;14.07;7.57;;;11.90;99.90;;;;;;5000135;28;20507;-72
2022/11/16 12:10:21;;;;;;;14.55;6.60;;;12.00;99.90;;;;;;5036596;28;20064;-73
2022/11/16 12:12:59;;;;;;;12.30;6.20;;;12.00;99.90;;;;;;5013619;28;20068;-73
2022/11/16 12:15:49;;;;;;;11.70;5.90;;;12.10;99.90;;;;;;5038570;28;20053;-71
2022/11/16 12:18:22;;;;;;;12.48;5.20;;;12.20;99.90;;;;;;5021370;28;20133;-72
2022/11/16 12:20:58;;;;;;;12.98;5.38;;;12.30;99.90;;;;;;5018681;28;20046;-72
2022/11/16 12:23:43;;;;;;;10.95;4.90;;;12.30;99.90;;;;;;5018576;28;20080;-73
2022/11/16 12:26:47;;;;;;;15.00;5.80;;;12.30;99.90;;;;;;5018327;28;20443;-72
2022/11/16 12:29:28;;;;;;;12.90;5.78;;;12.30;99.90;;;;;;5038102;28;20222;-72
2022/11/16 12:32:05;;;;;;;11.25;4.82;;;12.30;99.90;;;;;;5013090;28;20192;-73
2022/11/16 12:34:52;;;;;;;15.75;5.53;;;12.40;99.90;;;;;;5030676;28;20037;-72
2022/11/16 12:37:51;;;;;;;12.55;6.20;;;12.50;99.90;;;;;;5038135;28;20033;-72
2022/11/16 12:40:36;;;;;;;15.13;5.45;;;12.50;99.90;;;;;;5037968;28;20072;-73
2022/11/16 12:43:40;;;;;;;13.38;5.32;;;12.60;99.90;;;;;;5037847;28;20053;-73
2022/11/16 12:46:11;;;;;;;10.43;4.63;;;12.60;99.90;;;;;;4998893;28;20041;-72
2022/11/16 12:48:54;;;;;;;10.85;4.18;;;12.50;99.90;;;;;;5020320;28;20045;-73
2022/11/16 12:51:38;;;;;;;16.30;4.30;;;12.40;99.90;;;;;;5037495;28;20553;-72
2022/11/16 12:54:20;;;;;;;12.57;4.20;;;12.30;99.90;;;;;;5020166;28;20523;-73
2022/11/16 12:57:02;;;;;;;10.30;3.80;;;12.30;99.90;;;;;;5020034;28;20465;-71
2022/11/16 12:59:50;;;;;;;12.55;3.60;;;12.30;99.90;;;;;;5037785;28;20097;-72
2022/11/16 13:02:43;;;;;;;14.63;3.50;;;12.30;99.90;;;;;;5026190;28;20042;-73
2022/11/16 13:05:27;;;;;;;13.27;4.03;;;12.30;99.90;;;;;;5003982;28;20507;-74
2022/11/16 13:08:15;;;;;;;12.90;4.40;;;12.30;99.90;;;;;;5037229;28;20081;-73
2022/11/16 13:10:44;;;;;;;10.20;3.03;;;12.20;99.90;;;;;;5020352;28;20413;-72
2022/11/16 13:13:15;;;;;;;11.52;3.78;;;12.20;99.90;;;;;;5037219;28;20416;-74
2022/11/16 13:15:45;;;;;;;10.48;3.30;;;12.20;99.90;;;;;;5003551;28;20041;-73
2022/11/16 13:18:15;;;;;;;11.25;3.63;;;12.20;99.90;;;;;;5018702;28;20048;-73
2022/11/16 13:20:52;;;;;;;15.70;4.03;;;12.10;99.90;;;;;;5016759;28;20487;-72
2022/11/16 13:23:36;;;;;;;15.95;3.47;;;12.00;99.90;;;;;;5037158;28;20049;-72
2022/11/16 13:26:15;;;;;;;9.35;3.55;;;12.00;99.90;;;;;;5019706;28;20052;-73
2022/11/16 13:29:08;;;;;;;17.13;3.25;;;12.10;99.90;;;;;;5036955;28;20052;-73
2022/11/16 13:32:12;;;;;;;10.77;3.72;;;12.00;99.90;;;;;;5003552;28;20114;-73
2022/11/16 13:34:41;;;;;;;13.02;3.83;;;11.90;99.90;;;;;;5033953;28;20053;-73